Weather at Faya Largeau Airport

Public forecast

Using degrees Celsius for public forecast. Weather courtesy of forecast.io.

Current aviation weather report (METAR) for Faya Largeau Airport

2024/03/01 15:00 (retrieved 1 hour ago)

FTTY 011500Z 06016KT 2000 BLDU NSC 36/// Q1009

Closest aviation forecast (TAF) to Faya Largeau Airport

Closest forecast is Mano Dayak International Airport, 638.9 nm (1,183.2 km) W.

2024/03/01 12:21 (retrieved 4 hours ago)

TAF DRZA 011100Z 0112/0212 10015KT 8000 NSC TEMPO 0208/0212 10025KT 3500 BLDU